Time;durP1;ratioP1;P1;durP2;ratioP2;P2;SDS_P1;SDS_P2;PMS_P1;PMS_P2;Temp;Humidity;BMP_temperature;BMP_pressure;BME280_temperature;BME280_humidity;BME280_pressure;Samples;Min_cycle;Max_cycle;Signal;HPM_P1;HPM_P2
2019/04/24 14:05:45;;;;;;;3.3;1.6;;;;;;;27.58;19.31152;947.9728;;;;
2019/04/24 14:08:19;;;;;;;4.4;0.8;;;;;;;27.7;21.37305;948.1182;;;;
2019/04/24 14:10:50;;;;;;;3.6;1.7;;;;;;;27.78;19.98145;948.0538;;;;
2019/04/24 14:13:17;;;;;;;7;0.9;;;;;;;27.49;18.26172;948.1118;;;;
2019/04/24 14:15:47;;;;;;;4.2;0.8;;;;;;;27.08;18.37695;948.1926;;;;
2019/04/24 14:18:42;;;;;;;5.9;1;;;;;;;26.76;19.90039;948.1301;;;;
2019/04/24 14:21:02;;;;;;;8.9;5.4;;;;;;;26.66;20.12402;948.0991;;;;
2019/04/24 14:23:21;;;;;;;2.3;0.8;;;;;;;26.64;20.4707;948.1997;;;;
2019/04/24 14:25:47;;;;;;;4;2.1;;;;;;;26.63;20.70996;948.2367;;;;
2019/04/24 14:28:19;;;;;;;2.9;0.6;;;;;;;26.35;19.85742;948.1624;;;;
2019/04/24 14:30:41;;;;;;;3.3;1.6;;;;;;;26.32;21.11523;948.1577;;;;
2019/04/24 14:33:09;;;;;;;2.7;1;;;;;;;26.36;22.01758;948.1855;;;;
2019/04/24 14:35:49;;;;;;;5.1;2;;;;;;;26.44;23.75977;948.187;;;;
2019/04/24 14:38:17;;;;;;;3.4;0.9;;;;;;;26.47;23.16211;948.1494;;;;
2019/04/24 14:41:24;;;;;;;3.2;1.1;;;;;;;26.41;21.45508;948.1239;;;;
2019/04/24 14:44:02;;;;;;;7.8;3;;;;;;;26.4;21.64648;948.1085;;;;
2019/04/24 14:46:18;;;;;;;2.7;0.7;;;;;;;26.41;22.0791;948.1633;;;;
2019/04/24 14:48:45;;;;;;;3.1;2.3;;;;;;;26.34;21.67969;948.1584;;;;
2019/04/24 14:51:20;;;;;;;6.6;3.3;;;;;;;26.28;22.80469;948.079;;;;
2019/04/24 14:53:47;;;;;;;12.1;9.2;;;;;;;26.27;22.43262;948.0413;;;;
2019/04/24 14:58:20;;;;;;;2.9;1.5;;;;;;;26.35;23.55176;948.1006;;;;
2019/04/24 15:00:45;;;;;;;7.2;3.9;;;;;;;26.3;24.20801;948.0497;;;;
2019/04/24 15:03:10;;;;;;;5.2;1.2;;;;;;;26.31;23.86133;948.0201;;;;
2019/04/24 15:06:25;;;;;;;7.7;2.2;;;;;;;26.19;23.96289;948.0015;;;;
2019/04/24 15:08:50;;;;;;;6.7;1.6;;;;;;;25.95;24.3457;948.0396;;;;
2019/04/24 15:11:17;;;;;;;3.4;1.1;;;;;;;25.86;24.71094;948.0461;;;;
2019/04/24 15:14:35;;;;;;;6;1.4;;;;;;;25.68;25.3125;948.0734;;;;
2019/04/24 15:17:19;;;;;;;3.4;1;;;;;;;25.67;26.04199;948.1142;;;;
2019/04/24 15:19:41;;;;;;;7.1;1.1;;;;;;;25.62;26.32617;948.1192;;;;
2019/04/24 15:22:06;;;;;;;6.3;1.2;;;;;;;25.58;27.03027;948.1622;;;;
2019/04/24 15:24:43;;;;;;;8.5;1.4;;;;;;;25.51;26.64355;948.1101;;;;
2019/04/24 15:27:13;;;;;;;5.5;1.4;;;;;;;25.46;26.30469;948.1431;;;;
2019/04/24 15:29:39;;;;;;;8.6;1.5;;;;;;;25.38;27.06641;948.2014;;;;
2019/04/24 15:32:06;;;;;;;9.8;1.1;;;;;;;25.17;25.37891;948.2562;;;;
2019/04/24 15:34:47;;;;;;;3.8;1.2;;;;;;;25.07;26.27051;948.2064;;;;
2019/04/24 15:37:19;;;;;;;3.1;0.9;;;;;;;24.89;25.98438;948.2328;;;;
2019/04/24 15:39:47;;;;;;;3.4;1;;;;;;;24.87;26.48535;948.2358;;;;
2019/04/24 15:42:19;;;;;;;22.7;2.1;;;;;;;24.95;27.54199;948.3166;;;;
2019/04/24 15:44:49;;;;;;;10.7;1.3;;;;;;;24.94;25.9873;948.305;;;;
2019/04/24 15:47:18;;;;;;;9.3;1.1;;;;;;;24.92;26.12988;948.3094;;;;
2019/04/24 15:49:58;;;;;;;5.1;1.1;;;;;;;24.76;26.49023;948.2974;;;;
2019/04/24 15:52:23;;;;;;;6.2;1.5;;;;;;;24.54;25.61816;948.2786;;;;
2019/04/24 15:54:48;;;;;;;6.9;1.2;;;;;;;24.5;25.03027;948.2389;;;;
2019/04/24 15:57:13;;;;;;;3.7;1.2;;;;;;;24.38;25.40625;948.1879;;;;
2019/04/24 15:59:39;;;;;;;2.7;1;;;;;;;24.31;25.10352;948.1711;;;;
2019/04/24 16:02:10;;;;;;;6.1;1.2;;;;;;;24.26;24.53906;948.1367;;;;
2019/04/24 16:04:34;;;;;;;5.3;1.1;;;;;;;24.25;25.51758;948.1644;;;;
2019/04/24 16:07:23;;;;;;;2.4;1.1;;;;;;;24.23;25.55273;948.309;;;;
2019/04/24 16:09:29;;;;;;;5.7;1.4;;;;;;;24.28;25.66309;948.3025;;;;
2019/04/24 16:11:49;;;;;;;3.6;1.4;;;;;;;24.25;25.20801;948.3251;;;;
2019/04/24 16:14:14;;;;;;;4.5;1.3;;;;;;;24.22;24.83594;948.3494;;;;
2019/04/24 16:16:44;;;;;;;3.3;1.1;;;;;;;24.13;25.17773;948.3653;;;;
2019/04/24 16:19:10;;;;;;;3.7;1.3;;;;;;;24.12;25.05664;948.3812;;;;
2019/04/24 16:21:35;;;;;;;5.7;1.1;;;;;;;24.05;25.6377;948.3906;;;;
2019/04/24 16:24:00;;;;;;;2.7;1.3;;;;;;;23.87;25.40039;948.4373;;;;
2019/04/24 16:26:26;;;;;;;3.6;1;;;;;;;23.88;25.31738;948.4264;;;;
2019/04/24 16:28:52;;;;;;;4.2;1.3;;;;;;;23.94;26.38281;948.4633;;;;
2019/04/24 16:31:17;;;;;;;5;1.3;;;;;;;23.88;26.41504;948.4264;;;;
2019/04/24 16:33:48;;;;;;;5.4;1;;;;;;;23.98;26.49316;948.3685;;;;
2019/04/24 16:36:28;;;;;;;4.7;1.2;;;;;;;24.01;26.42285;948.4109;;;;
2019/04/24 16:39:04;;;;;;;7;1.2;;;;;;;24.03;26.60254;948.3895;;;;
2019/04/24 16:41:35;;;;;;;6.3;1.3;;;;;;;24;26.50684;948.3547;;;;
2019/04/24 16:43:57;;;;;;;4.7;1.2;;;;;;;23.93;26.33398;948.4662;;;;
2019/04/24 16:46:20;;;;;;;6.2;1.3;;;;;;;23.85;26.13867;948.4769;;;;
2019/04/24 16:48:44;;;;;;;3.3;1.2;;;;;;;23.71;26.36914;948.4077;;;;
2019/04/24 16:51:09;;;;;;;4.1;1.3;;;;;;;23.63;26.37598;948.4183;;;;
2019/04/24 16:53:41;;;;;;;4.7;1.4;;;;;;;23.59;26.45801;948.4423;;;;
2019/04/24 16:56:08;;;;;;;5.7;1.7;;;;;;;23.49;26.70117;948.4047;;;;
2019/04/24 16:58:40;;;;;;;4.3;1.3;;;;;;;23.46;26.49707;948.3895;;;;
2019/04/24 17:01:06;;;;;;;4;1.1;;;;;;;23.49;26.21289;948.4047;;;;
2019/04/24 17:03:31;;;;;;;7.6;1.3;;;;;;;23.34;26.12109;948.5248;;;;
2019/04/24 17:05:56;;;;;;;6.1;1.5;;;;;;;23.34;26.63281;948.6384;;;;
2019/04/24 17:08:27;;;;;;;4.4;1.5;;;;;;;23.33;26.84668;948.632;;;;
2019/04/24 17:10:53;;;;;;;4.9;1.5;;;;;;;23.28;26.56934;948.6539;;;;
2019/04/24 17:13:46;;;;;;;6.7;1.8;;;;;;;23.29;26.61816;948.6995;;;;
2019/04/24 17:16:16;;;;;;;6.7;1.5;;;;;;;23.31;26.64355;948.6964;;;;
2019/04/24 17:18:28;;;;;;;4.6;1.4;;;;;;;23.32;27.09668;948.6205;;;;
2019/04/24 17:21:03;;;;;;;3.2;1.4;;;;;;;23.26;25.84277;948.7312;;;;
2019/04/24 17:23:28;;;;;;;3.4;1.5;;;;;;;23.23;26.41309;948.7668;;;;
2019/04/24 17:26:07;;;;;;;6.1;1.4;;;;;;;23.28;27.73633;948.7975;;;;
2019/04/24 17:28:36;;;;;;;5.2;1.5;;;;;;;23.27;27.16504;948.8681;;;;
2019/04/24 17:31:01;;;;;;;5;1.9;;;;;;;23.32;28.37109;948.8947;;;;
2019/04/24 17:33:36;;;;;;;5.9;1.3;;;;;;;23.23;27.65039;948.8766;;;;
2019/04/24 17:36:02;;;;;;;5.5;1.9;;;;;;;23.19;27.81543;948.8614;;;;
2019/04/24 17:38:40;;;;;;;7.2;1.7;;;;;;;23.17;27.21777;948.8437;;;;
2019/04/24 17:40:59;;;;;;;73.4;62.4;;;;;;;23.13;31.75195;948.8298;;;;
2019/04/24 17:43:25;;;;;;;94.7;81.9;;;;;;;23.2;31.55469;948.89;;;;
2019/04/24 17:45:50;;;;;;;14.4;12.2;;;;;;;23.11;30.67871;948.9594;;;;
2019/04/24 17:48:23;;;;;;;18.9;15.9;;;;;;;23.11;30.63184;948.9816;;;;
2019/04/24 17:50:52;;;;;;;22.9;18.1;;;;;;;23.08;30.99902;948.9911;;;;
2019/04/24 17:53:17;;;;;;;17.2;14.4;;;;;;;23.01;30.39844;948.9778;;;;
2019/04/24 17:55:49;;;;;;;13.1;9.5;;;;;;;23.08;30.16504;949.0876;;;;
2019/04/24 17:58:16;;;;;;;10.9;7.4;;;;;;;22.99;31.53906;949.1778;;;;
2019/04/24 18:00:55;;;;;;;22.4;17.3;;;;;;;22.95;31.27539;949.1981;;;;
2019/04/24 18:03:15;;;;;;;9.5;8;;;;;;;22.84;31.80273;949.2885;;;;
2019/04/24 18:06:01;;;;;;;10.4;5.9;;;;;;;22.66;31.75488;949.2996;;;;
2019/04/24 18:08:26;;;;;;;12.9;7.1;;;;;;;22.65;31.44434;949.3975;;;;
2019/04/24 18:10:51;;;;;;;11.1;6.9;;;;;;;22.55;32.11523;949.4457;;;;
2019/04/24 18:13:19;;;;;;;7.8;4.7;;;;;;;22.57;31.7002;949.5068;;;;
2019/04/24 18:15:44;;;;;;;7.3;4.1;;;;;;;22.49;31.39648;949.5536;;;;
2019/04/24 18:18:11;;;;;;;6.5;2.2;;;;;;;22.44;30.43066;949.614;;;;
2019/04/24 18:20:50;;;;;;;2.2;1.6;;;;;;;22.29;29.23242;949.6495;;;;
2019/04/24 18:23:17;;;;;;;3.4;1.6;;;;;;;21.99;29.10547;949.757;;;;
2019/04/24 18:26:30;;;;;;;7.2;2.6;;;;;;;21.91;29.5625;949.8892;;;;
2019/04/24 18:28:18;;;;;;;7.5;2.7;;;;;;;21.83;27.97949;949.8805;;;;
2019/04/24 18:30:51;;;;;;;5.1;2;;;;;;;21.71;28.70703;949.9467;;;;
2019/04/24 18:33:20;;;;;;;3.4;1.8;;;;;;;21.58;29.49414;949.9816;;;;
2019/04/24 18:35:57;;;;;;;5.7;1.7;;;;;;;21.5;30.29492;950.0056;;;;
2019/04/24 18:38:26;;;;;;;3.3;1.5;;;;;;;21.32;30.82813;950.1893;;;;
2019/04/24 18:40:55;;;;;;;6.4;2.2;;;;;;;21.24;30.7041;950.0868;;;;
2019/04/24 18:43:21;;;;;;;5.1;2.4;;;;;;;21.19;30.75879;950.1653;;;;
2019/04/24 18:45:46;;;;;;;6.2;2;;;;;;;21.11;31.2998;950.1434;;;;
2019/04/24 18:48:14;;;;;;;5.2;2;;;;;;;21.06;31.63965;950.2269;;;;
2019/04/24 18:50:52;;;;;;;7.3;1.8;;;;;;;20.94;31.95117;950.2729;;;;
2019/04/24 18:53:18;;;;;;;3.7;1.9;;;;;;;20.79;32.7334;950.3646;;;;
2019/04/24 18:55:43;;;;;;;4.9;2;;;;;;;20.78;32.81543;950.5181;;;;
2019/04/24 18:58:09;;;;;;;19.9;14.6;;;;;;;20.81;32.52246;950.535;;;;
2019/04/24 19:00:35;;;;;;;7.5;2.7;;;;;;;20.86;31.88574;950.5271;;;;
2019/04/24 19:03:00;;;;;;;5;1.7;;;;;;;20.85;31.32813;950.6585;;;;
2019/04/24 19:05:32;;;;;;;4.2;1.5;;;;;;;20.91;30.53906;950.7297;;;;
2019/04/24 19:08:01;;;;;;;4.3;1.2;;;;;;;20.99;29.95215;950.7725;;;;
2019/04/24 19:10:36;;;;;;;7.7;2.5;;;;;;;21.11;33.05371;950.9149;;;;
2019/04/24 19:13:01;;;;;;;17.6;5.6;;;;;;;21.2;29.11328;951.0087;;;;
2019/04/24 19:15:35;;;;;;;10.3;1.4;;;;;;;21.2;28.5791;951.053;;;;
2019/04/24 19:18:00;;;;;;;9.2;1.1;;;;;;;21.25;28.41699;951.1997;;;;
2019/04/24 19:20:34;;;;;;;11.3;1;;;;;;;21.27;29.46191;951.3428;;;;
2019/04/24 19:23:06;;;;;;;9.7;1;;;;;;;21.27;28.53613;951.378;;;;
2019/04/24 19:25:41;;;;;;;5.8;0.6;;;;;;;21.28;29.04785;951.5016;;;;
2019/04/24 19:28:15;;;;;;;4.2;0.8;;;;;;;21.29;29.0957;951.5042;;;;
2019/04/24 19:30:48;;;;;;;5.1;0.7;;;;;;;21.3;29.52246;951.5979;;;;
2019/04/24 19:33:13;;;;;;;3.9;0.7;;;;;;;21.26;29.37793;951.8218;;;;
2019/04/24 19:35:45;;;;;;;31.2;2.8;;;;;;;21.09;33.90527;952.0994;;;;
2019/04/24 19:38:11;;;;;;;62.6;4.5;;;;;;;20.55;36.68164;952.187;;;;
2019/04/24 19:40:36;;;;;;;43.4;3.5;;;;;;;20.07;37.41016;952.4945;;;;
2019/04/24 19:43:01;;;;;;;25.3;2.3;;;;;;;19.64;37.58691;952.6007;;;;
2019/04/24 19:45:33;;;;;;;21.5;2;;;;;;;19.23;38.40039;952.6556;;;;
2019/04/24 19:48:17;;;;;;;40.2;14.1;;;;;;;18.97;39.15723;952.6889;;;;
2019/04/24 19:50:43;;;;;;;21.5;2.1;;;;;;;18.67;39.2832;952.7996;;;;
2019/04/24 19:53:12;;;;;;;14.9;1.7;;;;;;;18.49;39.80859;952.8792;;;;
2019/04/24 19:55:40;;;;;;;16.5;1.8;;;;;;;18.37;39.64648;952.9417;;;;
2019/04/24 19:58:05;;;;;;;12.6;1.7;;;;;;;18.16;39.74512;953.2;;;;
2019/04/24 20:00:34;;;;;;;8.3;1.3;;;;;;;18;40.50684;953.325;;;;
2019/04/24 20:02:59;;;;;;;8.3;1.2;;;;;;;17.74;40.51758;953.5134;;;;
2019/04/24 20:05:24;;;;;;;7.2;1.3;;;;;;;17.69;40.7832;953.6111;;;;
2019/04/24 20:07:50;;;;;;;7.8;1.3;;;;;;;17.33;41.94922;953.6278;;;;
2019/04/24 20:10:31;;;;;;;6.8;1.2;;;;;;;17.22;42.66699;953.5679;;;;
2019/04/24 20:12:48;;;;;;;10;1.5;;;;;;;17.19;42.78125;953.5341;;;;
2019/04/24 20:15:13;;;;;;;3.6;1.3;;;;;;;17.03;43.71582;953.5676;;;;
2019/04/24 20:17:39;;;;;;;6.7;1.4;;;;;;;16.87;44.32227;953.5792;;;;
2019/04/24 20:20:04;;;;;;;5.3;1.2;;;;;;;16.83;44.6709;953.6239;;;;
2019/04/24 20:22:30;;;;;;;5.4;1.3;;;;;;;16.78;44.83105;953.6269;;;;
2019/04/24 20:24:55;;;;;;;7.5;1.1;;;;;;;16.65;45.36914;953.6764;;;;
2019/04/24 20:27:24;;;;;;;3.4;1.1;;;;;;;16.6;45.39941;953.8045;;;;
2019/04/24 20:29:49;;;;;;;6.7;1.2;;;;;;;16.63;45.55469;953.7275;;;;
2019/04/24 20:32:17;;;;;;;7.7;1.4;;;;;;;16.53;45.80078;953.7294;;;;
2019/04/24 20:34:43;;;;;;;4.8;1.1;;;;;;;16.55;45.62793;953.9199;;;;
2019/04/24 20:37:15;;;;;;;77.7;62.4;;;;;;;16.44;45.88672;954.1258;;;;
2019/04/24 20:39:49;;;;;;;18.9;12.3;;;;;;;16.47;46.1709;954.0488;;;;
2019/04/24 20:42:14;;;;;;;6.4;1.1;;;;;;;16.42;46.17676;953.9264;;;;
2019/04/24 20:44:42;;;;;;;5.4;1.4;;;;;;;16.22;46.72949;953.9445;;;;
2019/04/24 20:47:07;;;;;;;6.7;1.3;;;;;;;16.14;46.95605;953.9998;;;;
2019/04/24 20:49:32;;;;;;;4.6;1.3;;;;;;;16.15;46.86328;954.1744;;;;
2019/04/24 20:52:05;;;;;;;6.1;1;;;;;;;16.18;47.00684;954.2769;;;;
2019/04/24 20:54:41;;;;;;;5.5;1.1;;;;;;;16.1;47.22168;954.3231;;;;
2019/04/24 20:57:11;;;;;;;5.3;1;;;;;;;16.06;47.24121;954.3248;;;;
2019/04/24 20:59:36;;;;;;;7.1;1.3;;;;;;;15.96;47.47656;954.3485;;;;
2019/04/24 21:02:01;;;;;;;2.6;1;;;;;;;15.88;47.52637;954.3043;;;;
2019/04/24 21:04:26;;;;;;;3.3;1;;;;;;;15.83;47.88281;954.3817;;;;
2019/04/24 21:07:08;;;;;;;4.9;1.1;;;;;;;15.85;47.83789;954.2971;;;;
2019/04/24 21:09:53;;;;;;;4.9;1;;;;;;;15.77;47.98047;954.223;;;;
2019/04/24 21:11:41;;;;;;;4.1;1.3;;;;;;;15.75;48.08496;954.2769;;;;
2019/04/24 21:14:06;;;;;;;5.7;1.1;;;;;;;15.75;48.01465;954.3245;;;;
2019/04/24 21:18:33;;;;;;;7.1;1.2;;;;;;;15.67;48.38086;954.1682;;;;
2019/04/24 21:21:04;;;;;;;4.2;1.2;;;;;;;15.62;48.41113;954.154;;;;
2019/04/24 21:23:36;;;;;;;4.6;1.2;;;;;;;15.58;48.97949;954.2408;;;;
2019/04/24 21:28:21;;;;;;;7.7;3.9;;;;;;;15.44;50.02832;954.4296;;;;
2019/04/24 21:30:56;;;;;;;5.2;1.3;;;;;;;15.52;49.96777;954.5513;;;;
2019/04/24 21:33:22;;;;;;;7.1;1.5;;;;;;;15.49;50.17383;954.6548;;;;
2019/04/24 21:35:49;;;;;;;6.9;1.5;;;;;;;15.46;50.5332;954.7022;;;;
2019/04/24 21:38:22;;;;;;;5.1;1.3;;;;;;;15.44;50.73047;954.6797;;;;
2019/04/24 21:40:48;;;;;;;5.9;1.4;;;;;;;15.27;51.68164;954.7247;;;;
2019/04/24 21:43:20;;;;;;;5.5;1.1;;;;;;;15.16;52.43945;954.8186;;;;
2019/04/24 21:45:45;;;;;;;3.8;1.1;;;;;;;15.12;53.13672;954.7556;;;;
2019/04/24 21:48:11;;;;;;;4.9;1.3;;;;;;;15.07;53.50391;954.8525;;;;
2019/04/24 21:50:42;;;;;;;4;1.3;;;;;;;14.92;54.5498;954.9387;;;;
2019/04/24 21:53:14;;;;;;;5;1.5;;;;;;;14.86;54.88086;955.1111;;;;
2019/04/24 21:55:56;;;;;;;5.8;1.6;;;;;;;14.91;54.8291;955.2155;;;;
2019/04/24 21:58:22;;;;;;;5.5;1.5;;;;;;;14.85;55.06738;955.3055;;;;
2019/04/24 22:03:32;;;;;;;5.3;1.7;;;;;;;14.94;54.8916;955.2974;;;;
2019/04/24 22:05:53;;;;;;;4.2;1.5;;;;;;;15;54.79297;955.392;;;;
2019/04/24 22:08:17;;;;;;;4.5;1.3;;;;;;;14.94;55.01953;955.5452;;;;
2019/04/24 22:10:52;;;;;;;5.4;1.6;;;;;;;14.99;54.60547;955.6934;;;;
2019/04/24 22:13:19;;;;;;;3.7;1.3;;;;;;;14.99;54.89844;955.6458;;;;
2019/04/24 22:15:45;;;;;;;5.5;1.6;;;;;;;14.95;54.83398;955.6432;;;;
2019/04/24 22:18:10;;;;;;;3.2;1.3;;;;;;;14.91;55.11035;955.704;;;;
2019/04/24 22:20:49;;;;;;;4.5;1.3;;;;;;;14.95;54.78613;955.6741;;;;
2019/04/24 22:23:28;;;;;;;3.8;1.5;;;;;;;14.93;55.01855;955.6117;;;;
2019/04/24 22:25:49;;;;;;;3.8;1.2;;;;;;;14.89;55.49219;955.6864;;;;
2019/04/24 22:28:17;;;;;;;4;1.3;;;;;;;14.9;55.27148;955.7369;;;;
2019/04/24 22:33:15;;;;;;;4.9;1.7;;;;;;;14.77;55.64063;955.7759;;;;
2019/04/24 22:35:42;;;;;;;9.4;1.9;;;;;;;14.66;54.98438;955.908;;;;
2019/04/24 22:38:07;;;;;;;7.9;1.7;;;;;;;14.66;54.48242;955.8515;;;;
2019/04/24 22:40:37;;;;;;;8.8;1.8;;;;;;;14.68;54.26172;955.8879;;;;
2019/04/24 22:42:57;;;;;;;10.3;2;;;;;;;14.68;54.04004;955.8108;;;;
2019/04/24 22:45:22;;;;;;;14.6;2.3;;;;;;;14.62;54.36035;955.8273;;;;
2019/04/24 22:47:48;;;;;;;12.2;2.3;;;;;;;14.49;55.00977;955.7385;;;;
2019/04/24 22:50:14;;;;;;;11.6;2;;;;;;;14.44;54.93359;955.8438;;;;
2019/04/24 22:52:42;;;;;;;13.6;2.6;;;;;;;14.33;54.90723;955.7436;;;;
2019/04/24 22:55:07;;;;;;;8.9;1.9;;;;;;;14.27;54.43262;955.7354;;;;
2019/04/24 22:57:37;;;;;;;12.3;2.4;;;;;;;14.14;55.38574;955.7444;;;;
2019/04/24 23:00:14;;;;;;;13.7;2.3;;;;;;;14.05;55.96875;955.7868;;;;
2019/04/24 23:02:41;;;;;;;14.4;2.3;;;;;;;13.92;55.80176;955.8472;;;;
2019/04/24 23:05:07;;;;;;;16.4;2.3;;;;;;;13.83;55.6377;955.7608;;;;
2019/04/24 23:07:38;;;;;;;8.4;2;;;;;;;13.77;55.66504;955.7265;;;;
2019/04/24 23:10:03;;;;;;;10.3;2;;;;;;;13.57;55.9541;955.6636;;;;
2019/04/24 23:12:28;;;;;;;5.8;2.1;;;;;;;13.49;56.81836;955.5416;;;;
2019/04/24 23:15:10;;;;;;;7.6;2.2;;;;;;;13.46;57.38281;955.5892;;;;
2019/04/24 23:17:19;;;;;;;9.8;1.9;;;;;;;13.45;57.46484;955.5812;;;;
2019/04/24 23:19:44;;;;;;;7.6;2.3;;;;;;;13.39;57.95801;955.6191;;;;
2019/04/24 23:22:27;;;;;;;6.9;1.9;;;;;;;13.33;58.00684;955.6235;;;;
2019/04/24 23:24:56;;;;;;;7;2;;;;;;;13.26;58.89355;955.5864;;;;
2019/04/24 23:27:36;;;;;;;9.8;2.2;;;;;;;13.25;58.98535;955.6042;;;;
2019/04/24 23:29:51;;;;;;;4.1;1.8;;;;;;;13.19;58.57129;955.647;;;;
2019/04/24 23:32:26;;;;;;;6;2.2;;;;;;;13.16;58.46191;955.561;;;;
2019/04/24 23:34:47;;;;;;;7.6;1.9;;;;;;;13.08;56.94922;955.6274;;;;
2019/04/24 23:37:14;;;;;;;8.6;1.8;;;;;;;13;55.70703;955.7701;;;;
2019/04/24 23:39:50;;;;;;;5.9;2;;;;;;;12.91;56.04395;955.7014;;;;
2019/04/24 23:42:15;;;;;;;5.7;1.9;;;;;;;12.88;58.24902;955.7015;;;;
2019/04/24 23:44:44;;;;;;;5.6;1.9;;;;;;;12.88;59.55176;955.6027;;;;
2019/04/24 23:47:12;;;;;;;6.4;1.9;;;;;;;12.88;60.06445;955.5848;;;;
2019/04/24 23:49:39;;;;;;;3.5;2;;;;;;;12.83;60.70801;955.6176;;;;
2019/04/24 23:52:09;;;;;;;6.1;1.9;;;;;;;12.83;60.91797;955.6047;;;;
2019/04/24 23:54:35;;;;;;;6.6;2;;;;;;;12.84;61.01172;955.5909;;;;
2019/04/24 23:57:02;;;;;;;3;1.6;;;;;;;12.77;59.39746;955.5834;;;;
2019/04/24 23:59:33;;;;;;;2.9;1.7;;;;;;;12.65;60.33496;955.5561;;;;
